createdAt,value
2018-09-01T00:01:18.846Z,99704.48
2018-09-01T00:03:47.349Z,99706.89
2018-09-01T00:06:16.283Z,99706.64
2018-09-01T00:08:44.774Z,99707.03
2018-09-01T00:11:14.407Z,99702.16
2018-09-01T00:13:42.885Z,99702.05
2018-09-01T00:16:11.630Z,99697.67
2018-09-01T00:18:40.509Z,99698.31
2018-09-01T00:21:09.266Z,99695.66
2018-09-01T00:23:37.746Z,99699.38
2018-09-01T00:26:06.587Z,99700.09
2018-09-01T00:28:35.066Z,99701.16
2018-09-01T00:31:03.519Z,99692.75
2018-09-01T00:33:32.401Z,99694.45
2018-09-01T00:36:01.665Z,99702.91
2018-09-01T00:38:36.715Z,99705.05
2018-09-01T00:41:05.413Z,99704.55
2018-09-01T00:43:33.908Z,99705.76
2018-09-01T00:46:02.371Z,99709.63
2018-09-01T00:48:30.900Z,99711.36
2018-09-01T00:50:59.408Z,99714.00
2018-09-01T00:53:28.221Z,99720.37
2018-09-01T00:55:56.677Z,99718.77
2018-09-01T00:58:26.349Z,99717.07
2018-09-01T01:00:55.171Z,99723.45
2018-09-01T01:03:24.281Z,99719.63
2018-09-01T01:05:53.785Z,99721.65
2018-09-01T01:08:22.259Z,99719.63
2018-09-01T01:10:51.384Z,99720.34
2018-09-01T01:13:20.538Z,99721.38
2018-09-01T01:15:48.969Z,99726.90
2018-09-01T01:18:17.441Z,99713.52
2018-09-01T01:20:46.153Z,99715.65
2018-09-01T01:23:15.315Z,99709.22
2018-09-01T01:25:44.033Z,99715.70
2018-09-01T01:28:12.890Z,99713.90
2018-09-01T01:30:41.408Z,99715.75
2018-09-01T01:33:10.669Z,99714.48
2018-09-01T01:35:40.020Z,99710.92
2018-09-01T01:38:08.481Z,99712.42
2018-09-01T01:40:37.292Z,99724.27
2018-09-01T01:43:06.546Z,99722.36
2018-09-01T01:45:35.108Z,99719.15
2018-09-01T01:48:04.244Z,99714.05
2018-09-01T01:50:32.766Z,99711.17
2018-09-01T01:53:01.877Z,99710.13
2018-09-01T01:55:30.413Z,99715.46
2018-09-01T01:57:58.996Z,99713.57
2018-09-01T02:00:28.063Z,99705.95
2018-09-01T02:02:56.547Z,99710.43
2018-09-01T02:05:31.444Z,99712.98
2018-09-01T02:08:00.013Z,99711.65
2018-09-01T02:10:29.666Z,99709.94
2018-09-01T02:12:58.597Z,99712.70
2018-09-01T02:15:27.522Z,99711.08
2018-09-01T02:17:56.026Z,99713.28
2018-09-01T02:20:24.530Z,99715.46
2018-09-01T02:22:53.254Z,99707.02
2018-09-01T02:25:22.039Z,99705.03
2018-09-01T02:27:50.496Z,99710.23
2018-09-01T02:30:19.048Z,99706.63
2018-09-01T02:32:48.101Z,99712.52
2018-09-01T02:35:17.340Z,99711.63
2018-09-01T02:37:46.974Z,99717.04
2018-09-01T02:40:15.516Z,99718.77
2018-09-01T02:42:43.969Z,99724.56
2018-09-01T02:45:12.735Z,99731.09
2018-09-01T02:47:41.213Z,99726.54
2018-09-01T02:50:09.742Z,99726.37
2018-09-01T02:52:38.203Z,99728.27
2018-09-01T02:55:07.845Z,99736.90
2018-09-01T02:57:36.900Z,99743.70
2018-09-01T03:00:11.580Z,99743.05
2018-09-01T03:02:44.814Z,99745.03
2018-09-01T03:05:16.011Z,99745.42
2018-09-01T03:07:45.162Z,99754.73
2018-09-01T03:10:13.900Z,99760.50
2018-09-01T03:12:42.949Z,99759.48
2018-09-01T03:15:11.684Z,99761.00
2018-09-01T03:17:40.136Z,99771.42
2018-09-01T03:20:08.675Z,99770.75
2018-09-01T03:22:38.134Z,99773.66
2018-09-01T03:25:07.359Z,99775.09
2018-09-01T03:27:36.806Z,99776.89
2018-09-01T03:30:06.405Z,99777.47
2018-09-01T03:32:34.857Z,99773.86
2018-09-01T03:35:04.620Z,99776.61
2018-09-01T03:37:33.293Z,99775.26
2018-09-01T03:40:01.749Z,99780.97
2018-09-01T03:42:30.203Z,99789.02
2018-09-01T03:45:00.135Z,99793.11
2018-09-01T03:47:28.598Z,99789.24
2018-09-01T03:49:57.592Z,99791.69
2018-09-01T03:52:27.063Z,99787.80
2018-09-01T03:54:55.863Z,99799.34
2018-09-01T03:57:24.615Z,99799.16
2018-09-01T03:59:53.079Z,99797.66
2018-09-01T04:02:21.541Z,99795.08
2018-09-01T04:04:50.029Z,99792.33
2018-09-01T04:07:18.793Z,99785.35
2018-09-01T04:09:47.299Z,99794.57
2018-09-01T04:12:16.655Z,99801.64
2018-09-01T04:14:45.705Z,99797.03
2018-09-01T04:17:14.205Z,99804.88
2018-09-01T04:19:42.673Z,99792.35
2018-09-01T04:22:12.104Z,99793.59
2018-09-01T04:24:41.214Z,99789.76
2018-09-01T04:27:09.692Z,99791.98
2018-09-01T04:29:38.574Z,99790.14
2018-09-01T04:32:07.088Z,99799.38
2018-09-01T04:34:35.574Z,99802.48
2018-09-01T04:37:05.010Z,99802.72
2018-09-01T04:39:33.481Z,99802.39
2018-09-01T04:42:01.991Z,99800.83
2018-09-01T04:44:31.765Z,99807.42
2018-09-01T04:47:00.403Z,99803.58
2018-09-01T04:49:28.871Z,99800.84
2018-09-01T04:51:58.254Z,99807.09
2018-09-01T04:54:27.137Z,99810.30
2018-09-01T04:56:56.537Z,99813.89
2018-09-01T04:59:25.432Z,99810.59
2018-09-01T05:01:54.014Z,99823.02
2018-09-01T05:04:22.776Z,99818.45
2018-09-01T05:06:51.770Z,99818.48
2018-09-01T05:09:21.546Z,99823.52
2018-09-01T05:11:50.401Z,99822.81
2018-09-01T05:14:18.885Z,99830.97
2018-09-01T05:16:47.459Z,99835.56
2018-09-01T05:19:16.374Z,99842.66
2018-09-01T05:21:44.909Z,99835.27
2018-09-01T05:24:13.359Z,99836.70
2018-09-01T05:26:42.154Z,99836.80
2018-09-01T05:29:11.036Z,99841.09
2018-09-01T05:31:39.574Z,99830.63
2018-09-01T05:34:08.086Z,99831.30
2018-09-01T05:36:36.825Z,99834.14
2018-09-01T05:39:07.733Z,99831.73
2018-09-01T05:41:36.362Z,99829.03
2018-09-01T05:44:04.961Z,99834.81
2018-09-01T05:46:33.510Z,99828.73
2018-09-01T05:49:02.005Z,99831.73
2018-09-01T05:51:31.931Z,99824.94
2018-09-01T05:54:00.388Z,99827.47
2018-09-01T05:56:28.973Z,99831.02
2018-09-01T05:58:57.465Z,99828.07
2018-09-01T06:01:27.029Z,99828.86
2018-09-01T06:03:55.595Z,99830.91
2018-09-01T06:06:24.215Z,99835.09
2018-09-01T06:08:52.695Z,99826.96
2018-09-01T06:11:21.559Z,99829.09
2018-09-01T06:13:51.453Z,99830.81
2018-09-01T06:16:20.558Z,99835.67
2018-09-01T06:18:49.371Z,99833.56
2018-09-01T06:21:17.921Z,99830.63
2018-09-01T06:23:46.389Z,99831.49
2018-09-01T06:26:14.935Z,99841.55
2018-09-01T06:28:47.779Z,99846.31
2018-09-01T06:31:17.841Z,99843.37
2018-09-01T06:33:46.317Z,99830.36
2018-09-01T06:36:14.833Z,99830.73
2018-09-01T06:38:43.336Z,99830.09
2018-09-01T06:41:12.595Z,99838.03
2018-09-01T06:43:41.064Z,99845.64
2018-09-01T06:46:09.559Z,99845.91
2018-09-01T06:48:38.058Z,99852.68
2018-09-01T06:51:06.562Z,99858.38
2018-09-01T06:53:35.067Z,99852.02
2018-09-01T06:56:03.578Z,99848.87
2018-09-01T06:58:32.645Z,99853.08
2018-09-01T07:01:01.788Z,99855.29
2018-09-01T07:03:31.009Z,99855.44
2018-09-01T07:05:59.477Z,99856.83
2018-09-01T07:08:27.959Z,99862.86
2018-09-01T07:10:56.449Z,99865.29
2018-09-01T07:13:24.990Z,99859.48
2018-09-01T07:15:53.544Z,99864.33
2018-09-01T07:18:22.321Z,99865.84
2018-09-01T07:20:51.065Z,99868.30
2018-09-01T07:23:19.993Z,99872.52
2018-09-01T07:25:49.882Z,99865.92
2018-09-01T07:28:19.245Z,99866.72
2018-09-01T07:30:49.222Z,99874.31
2018-09-01T07:33:17.916Z,99873.12
2018-09-01T07:35:46.651Z,99870.59
2018-09-01T07:38:15.389Z,99878.36
2018-09-01T07:40:43.873Z,99878.30
2018-09-01T07:43:13.051Z,99878.68
2018-09-01T07:45:41.822Z,99879.91
2018-09-01T07:48:10.348Z,99881.05
2018-09-01T07:50:38.782Z,99892.52
2018-09-01T07:53:07.311Z,99890.06
2018-09-01T07:55:36.086Z,99895.81
2018-09-01T07:58:04.624Z,99895.16
2018-09-01T08:00:33.101Z,99902.21
2018-09-01T08:03:01.866Z,99904.14
2018-09-01T08:05:30.314Z,99907.75
2018-09-01T08:07:58.823Z,99908.48
2018-09-01T08:10:27.317Z,99908.34
2018-09-01T08:12:55.816Z,99904.59
2018-09-01T08:15:24.668Z,99913.91
2018-09-01T08:17:53.418Z,99916.48
2018-09-01T08:20:21.918Z,99919.99
2018-09-01T08:22:50.503Z,99920.25
2018-09-01T08:25:19.039Z,99921.00
2018-09-01T08:27:50.697Z,99925.59
2018-09-01T08:30:19.170Z,99931.23
2018-09-01T08:32:47.779Z,99932.05
2018-09-01T08:35:16.574Z,99937.66
2018-09-01T08:37:45.151Z,99944.00
2018-09-01T08:40:13.685Z,99942.17
2018-09-01T08:42:42.474Z,99939.61
2018-09-01T08:45:11.070Z,99946.05
2018-09-01T08:47:40.284Z,99941.33
2018-09-01T08:50:08.843Z,99941.88
2018-09-01T08:52:37.348Z,99945.28
2018-09-01T08:55:06.170Z,99938.94
2018-09-01T08:57:35.450Z,99945.41
2018-09-01T09:00:05.230Z,99942.56
2018-09-01T09:02:35.144Z,99940.36
2018-09-01T09:05:04.185Z,99937.89
2018-09-01T09:07:33.879Z,99945.27
2018-09-01T09:10:02.601Z,99940.98
2018-09-01T09:12:31.075Z,99936.08
2018-09-01T09:15:00.650Z,99938.05
2018-09-01T09:17:29.259Z,99941.43
2018-09-01T09:19:59.073Z,99939.37
2018-09-01T09:22:27.562Z,99942.94
2018-09-01T09:24:56.077Z,99945.84
2018-09-01T09:27:24.574Z,99945.31
2018-09-01T09:29:53.959Z,99947.59
2018-09-01T09:32:22.412Z,99944.39
2018-09-01T09:34:50.903Z,99938.49
2018-09-01T09:37:19.391Z,99935.97
2018-09-01T09:39:49.174Z,99938.02
2018-09-01T09:42:18.022Z,99944.09
2018-09-01T09:44:46.542Z,99944.69
2018-09-01T09:47:14.988Z,99942.84
2018-09-01T09:49:45.333Z,99940.62
2018-09-01T09:52:14.524Z,99938.13
2018-09-01T09:54:43.076Z,99938.69
2018-09-01T09:57:11.592Z,99935.52
2018-09-01T09:59:40.092Z,99928.69
2018-09-01T10:02:08.989Z,99919.98
2018-09-01T10:04:37.458Z,99912.70
2018-09-01T10:07:06.570Z,99914.35
2018-09-01T10:09:35.442Z,99923.34
2018-09-01T10:12:03.921Z,99914.19
2018-09-01T10:14:32.421Z,99907.69
2018-09-01T10:17:00.907Z,99912.67
2018-09-01T10:19:30.016Z,99907.47
2018-09-01T10:21:58.493Z,99907.55
2018-09-01T10:24:27.060Z,99907.27
2018-09-01T10:26:55.794Z,99907.44
2018-09-01T10:29:24.599Z,99907.55
2018-09-01T10:31:53.944Z,99907.52
2018-09-01T10:34:22.526Z,99904.17
2018-09-01T10:36:51.348Z,99898.70
2018-09-01T10:39:20.140Z,99890.60
2018-09-01T10:41:59.593Z,99892.47
2018-09-01T10:44:28.072Z,99886.17
2018-09-01T10:46:56.798Z,99879.95
2018-09-01T10:49:25.830Z,99876.75
2018-09-01T10:51:56.280Z,99874.21
2018-09-01T10:54:24.884Z,99880.95
2018-09-01T10:56:53.354Z,99882.02
2018-09-01T10:59:21.954Z,99882.52
2018-09-01T11:01:50.834Z,99874.89
2018-09-01T11:04:19.580Z,99875.90
2018-09-01T11:06:48.190Z,99876.99
2018-09-01T11:09:17.223Z,99867.51
2018-09-01T11:11:46.417Z,99874.47
2018-09-01T11:14:15.538Z,99876.63
2018-09-01T11:16:44.473Z,99867.79
2018-09-01T11:19:13.196Z,99870.63
2018-09-01T11:21:42.541Z,99869.25
2018-09-01T11:24:11.057Z,99864.84
2018-09-01T11:26:40.067Z,99866.42
2018-09-01T11:29:09.365Z,99861.35
2018-09-01T11:31:38.478Z,99858.70
2018-09-01T11:34:06.981Z,99856.84
2018-09-01T11:36:35.841Z,99862.51
2018-09-01T11:39:06.682Z,99851.94
2018-09-01T11:41:35.205Z,99849.41
2018-09-01T11:44:05.056Z,99851.45
2018-09-01T11:46:33.531Z,99849.17
2018-09-01T11:49:02.015Z,99844.86
2018-09-01T11:51:30.957Z,99844.50
2018-09-01T11:53:59.459Z,99847.00
2018-09-01T11:56:28.245Z,99850.26
2018-09-01T11:58:57.737Z,99843.66
2018-09-01T12:01:26.443Z,99842.45
2018-09-01T12:03:55.252Z,99836.88
2018-09-01T12:06:23.771Z,99834.40
2018-09-01T12:08:53.026Z,99829.06
2018-09-01T12:11:21.796Z,99821.99
2018-09-01T12:13:50.551Z,99830.64
2018-09-01T12:16:19.482Z,99826.50
2018-09-01T12:18:48.213Z,99821.43
2018-09-01T12:21:16.799Z,99823.23
2018-09-01T12:23:45.259Z,99824.56
2018-09-01T12:26:14.047Z,99823.87
2018-09-01T12:28:43.311Z,99823.34
2018-09-01T12:31:13.248Z,99819.38
2018-09-01T12:33:42.765Z,99822.72
2018-09-01T12:36:11.865Z,99830.94
2018-09-01T12:38:40.805Z,99831.13
2018-09-01T12:41:09.363Z,99822.72
2018-09-01T12:43:38.082Z,99824.23
2018-09-01T12:46:07.369Z,99821.59
2018-09-01T12:48:35.870Z,99822.80
2018-09-01T12:51:04.721Z,99816.41
2018-09-01T12:53:33.975Z,99820.35
2018-09-01T12:56:02.537Z,99821.60
2018-09-01T12:58:32.397Z,99807.95
2018-09-01T13:01:02.107Z,99815.12
2018-09-01T13:03:31.314Z,99815.48
2018-09-01T13:05:59.819Z,99802.15
2018-09-01T13:08:30.491Z,99806.36
2018-09-01T13:10:59.841Z,99808.02
2018-09-01T13:13:28.338Z,99804.30
2018-09-01T13:15:57.047Z,99800.25
2018-09-01T13:18:25.594Z,99807.39
2018-09-01T13:20:54.600Z,99810.83
2018-09-01T13:23:23.335Z,99805.43
2018-09-01T13:25:52.769Z,99802.04
2018-09-01T13:28:21.237Z,99805.06
2018-09-01T13:30:50.813Z,99806.16
2018-09-01T13:33:19.946Z,99800.91
2018-09-01T13:35:48.442Z,99798.30
2018-09-01T13:38:17.414Z,99801.20
2018-09-01T13:40:45.919Z,99794.11
2018-09-01T13:43:14.733Z,99801.20
2018-09-01T13:45:43.239Z,99791.64
2018-09-01T13:48:12.296Z,99794.11
2018-09-01T13:50:41.144Z,99795.05
2018-09-01T13:53:09.663Z,99788.56
2018-09-01T13:55:39.216Z,99794.48
2018-09-01T13:58:08.197Z,99785.30
2018-09-01T14:00:37.006Z,99787.95
2018-09-01T14:03:06.925Z,99792.22
2018-09-01T14:05:35.476Z,99792.12
2018-09-01T14:08:05.979Z,99790.76
2018-09-01T14:10:36.346Z,99794.84
2018-09-01T14:13:05.747Z,99790.44
2018-09-01T14:15:35.317Z,99788.90
2018-09-01T14:18:04.293Z,99791.53
2018-09-01T14:20:33.619Z,99788.06
2018-09-01T14:23:02.163Z,99788.08
2018-09-01T14:25:31.711Z,99779.37
2018-09-01T14:28:00.485Z,99780.52
2018-09-01T14:30:29.821Z,99785.92
2018-09-01T14:32:58.382Z,99785.13
2018-09-01T14:35:27.860Z,99780.98
2018-09-01T14:37:57.273Z,99779.10
2018-09-01T14:40:25.728Z,99789.03
2018-09-01T14:42:54.909Z,99788.52
2018-09-01T14:45:23.443Z,99786.16
2018-09-01T14:47:52.596Z,99784.71
2018-09-01T14:50:21.476Z,99778.05
2018-09-01T14:52:50.900Z,99783.09
2018-09-01T14:55:19.909Z,99780.89
2018-09-01T14:57:49.258Z,99789.28
2018-09-01T15:00:17.825Z,99788.94
2018-09-01T15:02:46.369Z,99785.28
2018-09-01T15:05:14.839Z,99778.15
2018-09-01T15:07:43.680Z,99777.20
2018-09-01T15:10:12.602Z,99775.91
2018-09-01T15:12:41.122Z,99773.57
2018-09-01T15:15:09.747Z,99776.58
2018-09-01T15:17:38.515Z,99778.89
2018-09-01T15:20:07.424Z,99781.58
2018-09-01T15:22:36.722Z,99780.73
2018-09-01T15:25:05.281Z,99765.37
2018-09-01T15:27:35.223Z,99774.70
2018-09-01T15:30:04.262Z,99778.93
2018-09-01T15:32:32.782Z,99777.56
2018-09-01T15:35:01.713Z,99775.60
2018-09-01T15:37:30.754Z,99774.42
2018-09-01T15:40:00.091Z,99779.09
2018-09-01T15:42:28.986Z,99773.22
2018-09-01T15:44:58.414Z,99765.11
2018-09-01T15:47:26.920Z,99771.22
2018-09-01T15:49:55.405Z,99774.77
2018-09-01T15:52:24.243Z,99776.27
2018-09-01T15:54:52.684Z,99770.13
2018-09-01T15:57:21.753Z,99775.85
2018-09-01T16:02:19.922Z,99773.22
2018-09-01T16:04:48.772Z,99781.95
2018-09-01T16:07:17.255Z,99779.80
2018-09-01T16:09:45.719Z,99777.07
2018-09-01T16:12:15.063Z,99779.59
2018-09-01T16:14:44.280Z,99779.09
2018-09-01T16:17:12.744Z,99774.22
2018-09-01T16:19:41.744Z,99767.44
2018-09-01T16:22:10.961Z,99772.47
2018-09-01T16:24:40.444Z,99773.75
2018-09-01T16:27:08.888Z,99775.61
2018-09-01T16:29:37.783Z,99775.40
2018-09-01T16:32:06.465Z,99772.56
2018-09-01T16:34:35.446Z,99775.09
2018-09-01T16:37:05.612Z,99779.69
2018-09-01T16:39:35.014Z,99783.41
2018-09-01T16:42:03.525Z,99778.56
2018-09-01T16:44:32.029Z,99781.63
2018-09-01T16:47:00.557Z,99772.79
2018-09-01T16:49:29.889Z,99773.06
2018-09-01T16:51:59.637Z,99775.02
2018-09-01T16:54:28.471Z,99773.67
2018-09-01T16:56:57.300Z,99771.67
2018-09-01T16:59:25.775Z,99773.73
2018-09-01T17:01:54.484Z,99774.33
2018-09-01T17:04:22.997Z,99782.31
2018-09-01T17:06:51.474Z,99774.00
2018-09-01T17:09:23.914Z,99782.66
2018-09-01T17:11:52.364Z,99785.70
2018-09-01T17:14:22.452Z,99786.22
2018-09-01T17:16:51.378Z,99789.01
2018-09-01T17:19:20.229Z,99793.73
2018-09-01T17:21:48.974Z,99796.43
2018-09-01T17:24:18.422Z,99796.58
2018-09-01T17:26:47.233Z,99793.38
2018-09-01T17:29:15.724Z,99793.70
2018-09-01T17:31:44.459Z,99788.39
2018-09-01T17:34:13.392Z,99796.28
2018-09-01T17:36:42.155Z,99798.16
2018-09-01T17:39:12.622Z,99808.59
2018-09-01T17:41:42.020Z,99803.05
2018-09-01T17:44:13.210Z,99802.73
2018-09-01T17:46:41.700Z,99803.68
2018-09-01T17:49:10.527Z,99802.42
2018-09-01T17:51:39.576Z,99809.02
2018-09-01T17:54:09.492Z,99810.41
2018-09-01T17:56:38.274Z,99812.28
2018-09-01T17:59:06.776Z,99807.83
2018-09-01T18:01:35.930Z,99820.20
2018-09-01T18:04:04.392Z,99810.87
2018-09-01T18:06:32.894Z,99809.55
2018-09-01T18:09:01.374Z,99811.30
2018-09-01T18:11:30.097Z,99814.36
2018-09-01T18:13:59.197Z,99822.30
2018-09-01T18:16:28.143Z,99816.20
2018-09-01T18:18:56.645Z,99822.41
2018-09-01T18:21:25.138Z,99821.51
2018-09-01T18:23:55.510Z,99821.41
2018-09-01T18:26:23.992Z,99818.20
2018-09-01T18:28:53.030Z,99818.30
2018-09-01T18:31:21.892Z,99820.89
2018-09-01T18:33:50.765Z,99820.97
2018-09-01T18:36:19.665Z,99821.98
2018-09-01T18:38:48.179Z,99821.34
2018-09-01T18:41:17.491Z,99824.44
2018-09-01T18:43:46.350Z,99828.81
2018-09-01T18:46:16.846Z,99834.37
2018-09-01T18:48:45.556Z,99829.03
2018-09-01T18:51:14.025Z,99840.55
2018-09-01T18:53:42.919Z,99838.36
2018-09-01T18:56:11.429Z,99843.55
2018-09-01T18:58:39.906Z,99843.47
2018-09-01T19:01:09.710Z,99840.70
2018-09-01T19:03:38.313Z,99840.82
2018-09-01T19:06:07.204Z,99846.38
2018-09-01T19:08:36.104Z,99841.72
2018-09-01T19:11:04.599Z,99843.07
2018-09-01T19:13:33.592Z,99848.63
2018-09-01T19:16:02.316Z,99851.91
2018-09-01T19:18:30.907Z,99845.49
2018-09-01T19:20:59.473Z,99841.91
2018-09-01T19:23:27.938Z,99843.02
2018-09-01T19:25:56.805Z,99848.13
2018-09-01T19:28:25.504Z,99850.23
2018-09-01T19:30:54.689Z,99849.77
2018-09-01T19:33:24.796Z,99847.42
2018-09-01T19:35:53.650Z,99853.52
2018-09-01T19:38:22.476Z,99847.78
2018-09-01T19:40:50.957Z,99846.85
2018-09-01T19:43:19.432Z,99850.82
2018-09-01T19:45:47.900Z,99849.89
2018-09-01T19:48:16.385Z,99859.45
2018-09-01T19:50:46.405Z,99861.95
2018-09-01T19:53:15.095Z,99856.78
2018-09-01T19:55:44.184Z,99848.50
2018-09-01T19:58:12.981Z,99860.96
2018-09-01T20:00:42.649Z,99851.38
2018-09-01T20:03:11.340Z,99851.81
2018-09-01T20:05:40.207Z,99848.14
2018-09-01T20:08:10.366Z,99844.30
2018-09-01T20:10:38.878Z,99847.14
2018-09-01T20:13:08.102Z,99853.34
2018-09-01T20:15:37.295Z,99842.38
2018-09-01T20:18:07.163Z,99849.24
2018-09-01T20:20:36.040Z,99854.98
2018-09-01T20:23:05.991Z,99854.45
2018-09-01T20:25:34.518Z,99849.07
2018-09-01T20:28:03.186Z,99846.00
2018-09-01T20:30:31.701Z,99850.07
2018-09-01T20:33:00.877Z,99848.52
2018-09-01T20:35:35.261Z,99854.13
2018-09-01T20:38:04.674Z,99861.77
2018-09-01T20:40:33.365Z,99858.05
2018-09-01T20:43:02.237Z,99859.88
2018-09-01T20:45:30.728Z,99854.34
2018-09-01T20:47:59.769Z,99851.83
2018-09-01T20:50:29.288Z,99845.38
2018-09-01T20:52:58.076Z,99848.80
2018-09-01T20:55:26.949Z,99841.73
2018-09-01T20:57:55.408Z,99843.25
2018-09-01T21:00:24.329Z,99842.00
2018-09-01T21:02:52.855Z,99841.27
2018-09-01T21:05:22.650Z,99842.75
2018-09-01T21:07:51.536Z,99846.19
2018-09-01T21:10:21.242Z,99850.56
2018-09-01T21:12:49.676Z,99849.98
2018-09-01T21:15:18.174Z,99845.58
2018-09-01T21:17:47.073Z,99845.94
2018-09-01T21:20:15.574Z,99847.99
2018-09-01T21:22:44.144Z,99846.95
2018-09-01T21:25:12.668Z,99847.50
2018-09-01T21:27:41.653Z,99847.76
2018-09-01T21:30:10.569Z,99853.47
2018-09-01T21:32:39.106Z,99850.11
2018-09-01T21:35:07.582Z,99856.48
2018-09-01T21:37:36.572Z,99852.45
2018-09-01T21:40:05.682Z,99859.26
2018-09-01T21:42:34.424Z,99857.31
2018-09-01T21:45:03.114Z,99856.09
2018-09-01T21:47:31.701Z,99860.50
2018-09-01T21:50:00.512Z,99854.64
2018-09-01T21:52:29.825Z,99856.59
2018-09-01T21:54:59.228Z,99855.63
2018-09-01T21:57:28.219Z,99857.23
2018-09-01T21:59:57.684Z,99859.78
2018-09-01T22:02:26.889Z,99863.80
2018-09-01T22:05:00.863Z,99864.05
2018-09-01T22:07:29.369Z,99867.80
2018-09-01T22:09:57.932Z,99857.61
2018-09-01T22:12:26.855Z,99858.17
2018-09-01T22:14:56.274Z,99856.59
2018-09-01T22:17:26.144Z,99854.14
2018-09-01T22:19:54.622Z,99857.75
2018-09-01T22:22:24.084Z,99855.63
2018-09-01T22:24:53.517Z,99853.28
2018-09-01T22:27:22.833Z,99855.50
2018-09-01T22:29:51.301Z,99856.08
2018-09-01T22:32:20.462Z,99854.63
2018-09-01T22:34:48.924Z,99858.96
2018-09-01T22:37:18.458Z,99860.30
2018-09-01T22:39:46.948Z,99858.47
2018-09-01T22:42:15.907Z,99862.69
2018-09-01T22:44:44.710Z,99860.22
2018-09-01T22:47:21.765Z,99863.82
2018-09-01T22:49:51.048Z,99853.28
2018-09-01T22:52:19.563Z,99853.61
2018-09-01T22:54:48.035Z,99853.13
2018-09-01T22:57:16.538Z,99849.13
2018-09-01T22:59:45.093Z,99851.91
2018-09-01T23:02:14.341Z,99848.15
2018-09-01T23:04:43.305Z,99843.46
2018-09-01T23:07:12.158Z,99847.78
2018-09-01T23:09:42.433Z,99843.95
2018-09-01T23:12:11.365Z,99840.63
2018-09-01T23:14:40.160Z,99844.30
2018-09-01T23:17:08.666Z,99845.59
2018-09-01T23:19:37.436Z,99842.13
2018-09-01T23:22:05.962Z,99843.86
2018-09-01T23:24:35.185Z,99845.68
2018-09-01T23:27:04.375Z,99845.91
2018-09-01T23:29:33.777Z,99846.36
2018-09-01T23:32:03.065Z,99850.80
2018-09-01T23:34:31.909Z,99851.48
2018-09-01T23:37:01.062Z,99852.16
2018-09-01T23:39:29.543Z,99849.89
2018-09-01T23:41:58.423Z,99850.38
2018-09-01T23:44:26.882Z,99859.30
2018-09-01T23:46:55.357Z,99855.67
2018-09-01T23:49:25.487Z,99859.41
2018-09-01T23:51:54.245Z,99858.56
2018-09-01T23:54:22.714Z,99861.63
2018-09-01T23:56:52.174Z,99856.74
2018-09-01T23:59:20.633Z,99859.05
